Main page
METAR-TAF:

METAR-TAF

Airports :

Kerry Airport

Killarney, Ireland

latitude: 52-10-51N, longitude: 9-31-26W, elevation: 34 m

Current weather observation

The report was made 5 hours and 39 minutes ago, at 19:00 UTC
Wind 4 kt from the Northwest, varying between West and North
Temperature 17°C
Humidity 68%
Pressure 1023 hPa
Visibility 10 km or more
no clouds below 1500 m and no cumulonimbus

METAR: EIKY 231900Z 32004KT 280V350 CAVOK 17/11 Q1023

Time: 01:39 (00:39 UTC)

Forecast

The report was made 7 hours and 39 minutes ago, at 17:00 UTC
Forecast valid from 23 at 18 UTC to 23 at 21 UTC
Wind 7 kt from the Northwest
Visibility 10 km or more
Scattered clouds at a height of 3500 ft

TAF: EIKY 231700Z 2318/2321 32007KT 9999 SCT035

Weather observations and forecasts of more than 4000 airports (METAR and TAF reports).

The available stations are represented by yellow and red dots on the map.

Hover mouse over dot to see the name of the station.

Then click to see weather observations and forecasts.

To change the map : click on the green buttons with a black cross to zoom in, on the green button with a dash to zoom out, or on the green arrows for adjacent maps.


METAR-TAF: